Terminal Aerodrome Forecast
Issued by NWS

Home | Current Version | Previous Version | Text Only | Print | Product List | Glossary On
Versions: 1 2 3 4 5 6 7 8 9 10 11 12 13 14 15 16 17 18 19 20 21 22 23 24
000
FTUS42 KFFC 202300
TAFRYY
TAF
KRYY 202332Z 2100/2124 25008KT P6SM VCSH BKN045
      TEMPO 2100/2102 VRB15G25KT 4SM -TSRA BKN030CB
     FM210900 29004KT 3SM BR SCT008
     FM211400 28007KT P6SM SCT025
     FM211700 30006KT P6SM SCT045
      AMD NOT SKED 2104/2112=

USA.gov is the U.S. government's official web portal to all federal, state and local government web resources and services.